Time;durP1;ratioP1;P1;durP2;ratioP2;P2;SDS_P1;SDS_P2;PMS_P1;PMS_P2;Temp;Humidity;BMP_temperature;BMP_pressure;BME280_temperature;BME280_humidity;BME280_pressure;Samples;Min_cycle;Max_cycle;Signal;HPM_P1;HPM_P2
2023/05/16 00:01:22;;;;;;;9.00;8.10;;;11.10;99.90;;;;;;5012405;28;20712;-64
2023/05/16 00:03:47;;;;;;;9.07;8.10;;;11.10;99.90;;;;;;5012493;28;20637;-64
2023/05/16 00:06:14;;;;;;;9.67;8.50;;;11.10;99.90;;;;;;5012380;28;20178;-64
2023/05/16 00:08:40;;;;;;;8.33;7.67;;;11.10;99.90;;;;;;5012637;28;20171;-64
2023/05/16 00:11:05;;;;;;;8.63;7.93;;;11.10;99.90;;;;;;5012059;28;20205;-64
2023/05/16 00:13:31;;;;;;;9.37;8.47;;;11.10;99.90;;;;;;5012189;28;20211;-64
2023/05/16 00:15:58;;;;;;;9.27;7.97;;;11.10;99.90;;;;;;5012041;28;20168;-64
2023/05/16 00:18:24;;;;;;;9.60;8.60;;;11.00;99.90;;;;;;5012370;28;20274;-64
2023/05/16 00:20:51;;;;;;;8.13;7.43;;;11.00;99.90;;;;;;5012130;28;20565;-64
2023/05/16 00:23:17;;;;;;;10.53;7.80;;;11.00;99.90;;;;;;5012072;28;20184;-64
2023/05/16 00:25:42;;;;;;;10.37;7.63;;;11.00;99.90;;;;;;5012184;28;20186;-64
2023/05/16 00:28:08;;;;;;;8.27;7.57;;;10.90;99.90;;;;;;5012415;28;20560;-64
2023/05/16 00:30:34;;;;;;;7.40;6.77;;;10.90;99.90;;;;;;5011706;28;20234;-64
2023/05/16 00:32:59;;;;;;;8.80;7.27;;;10.90;99.90;;;;;;5011805;28;20192;-64
2023/05/16 00:35:25;;;;;;;7.37;6.77;;;10.80;99.90;;;;;;5011929;28;20171;-64
2023/05/16 00:37:51;;;;;;;7.80;7.00;;;10.70;99.90;;;;;;5011643;28;20203;-64
2023/05/16 00:40:17;;;;;;;6.97;6.40;;;10.70;99.90;;;;;;5011623;28;20554;-64
2023/05/16 00:42:42;;;;;;;7.33;6.73;;;10.70;99.90;;;;;;5011991;28;20216;-64
2023/05/16 00:45:09;;;;;;;8.77;6.80;;;10.60;99.90;;;;;;5011662;28;20184;-64
2023/05/16 00:47:35;;;;;;;6.90;6.30;;;10.60;99.90;;;;;;5011791;28;20196;-64
2023/05/16 00:50:01;;;;;;;7.93;7.13;;;10.60;99.90;;;;;;5011281;28;20616;-64
2023/05/16 00:52:27;;;;;;;8.83;6.73;;;10.60;99.90;;;;;;5011880;28;20263;-64
2023/05/16 00:54:53;;;;;;;7.70;7.07;;;10.60;99.90;;;;;;5011287;28;20171;-65
2023/05/16 00:57:19;;;;;;;7.23;6.67;;;10.50;99.90;;;;;;5011688;28;20555;-64
2023/05/16 00:59:46;;;;;;;7.37;6.77;;;10.50;99.90;;;;;;5011057;28;20259;-65
2023/05/16 01:02:12;;;;;;;7.03;6.40;;;10.50;99.90;;;;;;5011720;28;20661;-64
2023/05/16 01:04:39;;;;;;;6.57;6.07;;;10.50;99.90;;;;;;5011312;28;20649;-64
2023/05/16 01:07:04;;;;;;;6.60;5.97;;;10.50;99.90;;;;;;5011309;28;20589;-64
2023/05/16 01:09:30;;;;;;;6.93;6.43;;;10.50;99.90;;;;;;5011154;28;20404;-64
2023/05/16 01:12:12;;;;;;;10.40;6.53;;;10.50;99.90;;;;;;5011330;28;20184;-64
2023/05/16 01:14:54;;;;;;;7.27;6.60;;;10.50;99.90;;;;;;5011295;28;20204;-64
2023/05/16 01:17:33;;;;;;;8.37;6.80;;;10.40;99.90;;;;;;5011678;28;20188;-64
2023/05/16 01:20:31;;;;;;;6.87;6.27;;;10.40;99.90;;;;;;5010953;28;20263;-64
2023/05/16 01:23:15;;;;;;;7.27;6.67;;;10.30;99.90;;;;;;5011760;28;20236;-65
2023/05/16 01:25:47;;;;;;;6.90;6.40;;;10.20;99.90;;;;;;5005204;28;20553;-64
2023/05/16 01:28:15;;;;;;;7.57;7.03;;;10.20;99.90;;;;;;5011419;28;20196;-64
2023/05/16 01:30:41;;;;;;;11.40;7.00;;;10.20;99.90;;;;;;4994164;28;20180;-65
2023/05/16 01:33:07;;;;;;;8.00;7.40;;;10.20;99.90;;;;;;5011318;28;20732;-65
2023/05/16 01:35:41;;;;;;;7.70;7.17;;;10.10;99.90;;;;;;5011217;28;20187;-64
2023/05/16 01:38:23;;;;;;;7.40;6.80;;;10.00;99.90;;;;;;5011330;28;20191;-64
2023/05/16 01:40:49;;;;;;;8.23;7.00;;;10.00;99.90;;;;;;4991413;28;20654;-64
2023/05/16 01:43:19;;;;;;;7.37;6.67;;;9.90;99.90;;;;;;4999445;28;20216;-64
2023/05/16 01:45:56;;;;;;;7.67;6.97;;;9.80;99.90;;;;;;5011126;28;20520;-64
2023/05/16 01:48:29;;;;;;;11.47;7.50;;;9.90;99.90;;;;;;5011079;28;20199;-65
2023/05/16 01:50:56;;;;;;;7.90;7.10;;;9.90;99.90;;;;;;5010963;28;20177;-64
2023/05/16 01:53:28;;;;;;;9.20;7.17;;;9.90;99.90;;;;;;5010737;28;20725;-64
2023/05/16 01:55:57;;;;;;;8.27;7.57;;;9.90;99.90;;;;;;5011074;28;20176;-64
2023/05/16 01:58:25;;;;;;;8.00;7.20;;;9.90;99.90;;;;;;5011065;28;20192;-65
2023/05/16 02:00:58;;;;;;;7.17;6.57;;;9.90;99.90;;;;;;5010581;28;20180;-65
2023/05/16 02:03:24;;;;;;;8.43;7.30;;;10.00;99.90;;;;;;5011235;28;20180;-65
2023/05/16 02:05:50;;;;;;;7.20;6.60;;;9.90;99.90;;;;;;5010914;28;20271;-65
2023/05/16 02:08:15;;;;;;;7.83;7.13;;;9.90;99.90;;;;;;5063323;23;20215;-66
2023/05/16 02:10:41;;;;;;;9.33;7.70;;;9.80;99.90;;;;;;5034385;28;20686;-66
2023/05/16 02:13:06;;;;;;;9.20;7.50;;;9.70;99.90;;;;;;5034111;28;20203;-66
2023/05/16 02:15:32;;;;;;;12.07;7.97;;;9.70;99.90;;;;;;5034442;28;20175;-65
2023/05/16 02:17:58;;;;;;;8.97;7.60;;;9.70;99.90;;;;;;5034009;28;20352;-65
2023/05/16 02:20:23;;;;;;;9.00;7.80;;;9.60;99.90;;;;;;5034391;28;20182;-65
2023/05/16 02:22:49;;;;;;;9.90;7.60;;;9.60;99.90;;;;;;5034565;28;20880;-66
2023/05/16 02:25:15;;;;;;;9.33;8.33;;;9.60;99.90;;;;;;5034459;28;20543;-65
2023/05/16 02:27:41;;;;;;;14.27;7.40;;;9.60;99.90;;;;;;5034035;28;20206;-65
2023/05/16 02:30:09;;;;;;;13.90;7.30;;;9.60;99.90;;;;;;5034408;28;20611;-67
2023/05/16 02:32:35;;;;;;;9.57;8.17;;;9.50;99.90;;;;;;5035219;28;20700;-71
2023/05/16 02:35:00;;;;;;;8.60;7.73;;;9.50;99.90;;;;;;5035784;28;20663;-69
2023/05/16 02:37:26;;;;;;;10.47;8.33;;;9.40;99.90;;;;;;5034282;28;20199;-67
2023/05/16 02:39:51;;;;;;;9.97;7.33;;;9.40;99.90;;;;;;5033126;28;20742;-68
2023/05/16 02:42:17;;;;;;;12.17;7.83;;;9.30;99.90;;;;;;5035160;28;20179;-70
2023/05/16 02:44:43;;;;;;;10.63;7.77;;;9.30;99.90;;;;;;5033754;28;20692;-71
2023/05/16 02:47:08;;;;;;;14.17;8.07;;;9.30;99.90;;;;;;5033587;28;20210;-71
2023/05/16 02:49:34;;;;;;;11.63;8.83;;;9.30;99.90;;;;;;5033924;28;20179;-69
2023/05/16 02:52:00;;;;;;;9.80;7.63;;;9.30;99.90;;;;;;5033712;28;20643;-70
2023/05/16 02:54:25;;;;;;;11.13;7.53;;;9.30;99.90;;;;;;5035010;28;20183;-70
2023/05/16 02:56:51;;;;;;;11.57;7.53;;;9.30;99.90;;;;;;5035033;28;20200;-70
2023/05/16 02:59:17;;;;;;;15.77;7.83;;;9.30;99.90;;;;;;5034931;28;20167;-67
2023/05/16 03:01:42;;;;;;;10.40;7.70;;;9.20;99.90;;;;;;5034680;28;20172;-67
2023/05/16 03:04:09;;;;;;;12.27;8.40;;;9.20;99.90;;;;;;5035032;28;20699;-67
2023/05/16 03:06:34;;;;;;;12.37;8.93;;;9.10;99.90;;;;;;5033176;28;20196;-68
2023/05/16 03:09:00;;;;;;;16.50;8.07;;;9.10;99.90;;;;;;5034922;28;20246;-71
2023/05/16 03:11:27;;;;;;;9.00;8.13;;;9.10;99.90;;;;;;5034240;28;20655;-71
2023/05/16 03:13:53;;;;;;;16.23;8.30;;;9.00;99.90;;;;;;5034306;28;20195;-69
2023/05/16 03:16:19;;;;;;;10.57;8.07;;;9.00;99.90;;;;;;5033762;28;20203;-73
2023/05/16 03:18:44;;;;;;;17.53;8.53;;;9.00;99.90;;;;;;5033297;28;20167;-70
2023/05/16 03:21:10;;;;;;;10.20;7.67;;;8.90;99.90;;;;;;5034111;28;20198;-69
2023/05/16 03:23:35;;;;;;;12.20;7.13;;;8.90;99.90;;;;;;5034801;28;20253;-69
2023/05/16 03:26:01;;;;;;;17.70;9.17;;;9.00;99.90;;;;;;5034174;28;20176;-69
2023/05/16 03:28:27;;;;;;;14.53;8.17;;;9.10;99.90;;;;;;5034481;28;20203;-67
2023/05/16 03:30:52;;;;;;;20.67;8.50;;;9.00;99.90;;;;;;5032492;28;20708;-68
2023/05/16 03:33:18;;;;;;;12.90;8.47;;;9.00;99.90;;;;;;5033069;28;20270;-67
2023/05/16 03:35:45;;;;;;;10.60;8.20;;;9.00;99.90;;;;;;5033659;28;20225;-67
2023/05/16 03:38:11;;;;;;;19.93;8.23;;;9.10;99.90;;;;;;5033794;28;20192;-71
2023/05/16 03:40:37;;;;;;;17.23;8.80;;;9.10;99.90;;;;;;5032358;28;20209;-70
2023/05/16 03:43:02;;;;;;;15.90;8.60;;;9.10;99.90;;;;;;5033885;28;20227;-70
2023/05/16 03:45:30;;;;;;;11.90;8.00;;;9.10;99.90;;;;;;5032854;28;20179;-72
2023/05/16 03:47:55;;;;;;;13.67;8.20;;;9.10;99.90;;;;;;5031808;28;20217;-70
2023/05/16 03:50:21;;;;;;;10.50;8.27;;;9.00;99.90;;;;;;5033199;28;20176;-65
2023/05/16 03:52:47;;;;;;;15.30;7.97;;;9.10;99.90;;;;;;5032263;28;20255;-65
2023/05/16 03:55:14;;;;;;;14.17;7.93;;;9.10;99.90;;;;;;5032575;28;20225;-64
2023/05/16 03:57:41;;;;;;;14.77;8.23;;;9.10;99.90;;;;;;5032322;28;20214;-64
2023/05/16 04:00:07;;;;;;;14.07;7.70;;;9.10;99.90;;;;;;5031821;28;20186;-65
2023/05/16 04:02:33;;;;;;;17.17;8.80;;;9.00;99.90;;;;;;5032479;28;20206;-65
2023/05/16 04:04:59;;;;;;;16.30;7.93;;;8.90;99.90;;;;;;5032206;28;20656;-65
2023/05/16 04:07:24;;;;;;;12.33;7.50;;;8.90;99.90;;;;;;5030995;28;20214;-64
2023/05/16 04:09:51;;;;;;;12.73;8.17;;;8.90;99.90;;;;;;5032005;28;20250;-64
2023/05/16 04:12:16;;;;;;;14.20;7.50;;;8.90;99.90;;;;;;5032241;28;20192;-63
2023/05/16 04:14:42;;;;;;;13.33;7.50;;;8.90;99.90;;;;;;5032406;28;20186;-64
2023/05/16 04:17:08;;;;;;;13.20;8.17;;;8.90;99.90;;;;;;5031867;28;20321;-64
2023/05/16 04:19:33;;;;;;;18.33;8.60;;;8.90;99.90;;;;;;5032116;28;20171;-63
2023/05/16 04:21:59;;;;;;;16.37;8.30;;;8.80;99.90;;;;;;5031890;28;20176;-63
2023/05/16 04:24:27;;;;;;;16.43;7.83;;;8.70;99.90;;;;;;5031875;28;20199;-63
2023/05/16 04:26:53;;;;;;;17.40;7.77;;;8.70;99.90;;;;;;5032041;28;20194;-63
2023/05/16 04:29:20;;;;;;;8.27;6.60;;;8.70;99.90;;;;;;5031232;28;20168;-63
2023/05/16 04:31:45;;;;;;;14.30;7.10;;;8.70;99.90;;;;;;5031776;28;20179;-63
2023/05/16 04:34:12;;;;;;;17.50;8.40;;;8.60;99.90;;;;;;5031700;28;20529;-63
2023/05/16 04:36:37;;;;;;;15.37;8.00;;;8.60;99.90;;;;;;5032123;28;20194;-63
2023/05/16 04:39:03;;;;;;;14.53;8.00;;;8.50;99.90;;;;;;5031820;28;20179;-63
2023/05/16 04:41:29;;;;;;;16.80;7.97;;;8.50;99.90;;;;;;5031985;28;20176;-64
2023/05/16 04:43:54;;;;;;;14.27;7.23;;;8.50;99.90;;;;;;5031225;28;20203;-66
2023/05/16 04:46:20;;;;;;;14.53;8.23;;;8.50;99.90;;;;;;5031854;28;20576;-65
2023/05/16 04:48:46;;;;;;;16.47;8.10;;;8.40;99.90;;;;;;5031558;28;20175;-65
2023/05/16 04:51:12;;;;;;;11.53;7.93;;;8.40;99.90;;;;;;5031424;28;20198;-65
2023/05/16 04:53:37;;;;;;;15.37;8.73;;;8.40;99.90;;;;;;5031426;28;20187;-66
2023/05/16 04:56:04;;;;;;;14.70;7.47;;;8.30;99.90;;;;;;5031563;28;20233;-67
2023/05/16 04:58:30;;;;;;;10.00;7.27;;;8.30;99.90;;;;;;5031397;28;20196;-65
2023/05/16 05:00:56;;;;;;;14.73;7.80;;;8.30;99.90;;;;;;5029874;28;20270;-66
2023/05/16 05:03:22;;;;;;;16.70;7.23;;;8.30;99.90;;;;;;5031326;28;20203;-65
2023/05/16 05:05:48;;;;;;;16.53;8.07;;;8.20;99.90;;;;;;5031385;28;20687;-65
2023/05/16 05:08:13;;;;;;;9.63;7.23;;;8.20;99.90;;;;;;5031172;28;20355;-66
2023/05/16 05:10:39;;;;;;;14.40;7.47;;;8.30;99.90;;;;;;5031359;28;20644;-63
2023/05/16 05:13:05;;;;;;;16.90;8.07;;;8.30;99.90;;;;;;5031229;28;20545;-65
2023/05/16 05:15:31;;;;;;;11.27;7.90;;;8.30;99.90;;;;;;5031471;28;20199;-66
2023/05/16 05:17:56;;;;;;;12.80;8.33;;;8.50;99.90;;;;;;5030873;28;20199;-65
2023/05/16 05:20:22;;;;;;;16.67;9.27;;;8.60;99.90;;;;;;5031083;28;20180;-66
2023/05/16 05:22:47;;;;;;;21.70;8.37;;;8.80;99.90;;;;;;5031094;28;20175;-65
2023/05/16 05:25:13;;;;;;;13.07;8.07;;;8.90;99.90;;;;;;5031447;28;20172;-66
2023/05/16 05:27:39;;;;;;;20.87;7.70;;;9.10;99.90;;;;;;5031094;28;20196;-66
2023/05/16 05:30:05;;;;;;;8.93;6.93;;;9.10;99.90;;;;;;5030660;28;20189;-66
2023/05/16 05:32:31;;;;;;;16.13;6.87;;;9.10;99.90;;;;;;5031025;28;20176;-66
2023/05/16 05:34:57;;;;;;;12.90;6.20;;;9.10;99.90;;;;;;5031379;28;20251;-66
2023/05/16 05:37:22;;;;;;;13.30;6.53;;;9.10;99.90;;;;;;5030961;28;20250;-65
2023/05/16 05:39:48;;;;;;;15.30;7.03;;;9.10;99.90;;;;;;5030990;28;20168;-66
2023/05/16 05:42:13;;;;;;;11.30;6.67;;;9.20;99.90;;;;;;5032776;28;20237;-66
2023/05/16 05:44:39;;;;;;;13.53;6.50;;;9.20;99.90;;;;;;5035123;28;20203;-65
2023/05/16 05:47:06;;;;;;;11.40;6.17;;;9.40;99.90;;;;;;5034391;28;20732;-66
2023/05/16 05:49:32;;;;;;;12.33;6.37;;;9.70;99.90;;;;;;5034878;28;20174;-66
2023/05/16 05:51:58;;;;;;;13.97;7.67;;;9.90;99.90;;;;;;5034342;28;20639;-65
2023/05/16 05:54:24;;;;;;;11.67;5.80;;;10.30;99.90;;;;;;5034581;28;20270;-64
2023/05/16 05:56:49;;;;;;;6.70;5.77;;;10.50;99.90;;;;;;5034798;28;20250;-64
2023/05/16 05:59:15;;;;;;;16.53;5.70;;;10.90;99.90;;;;;;5034506;28;20580;-63
2023/05/16 06:01:42;;;;;;;9.33;5.53;;;11.30;99.90;;;;;;5034846;28;20728;-64
2023/05/16 06:04:08;;;;;;;8.00;5.47;;;11.50;99.90;;;;;;5033656;28;20207;-64
2023/05/16 06:06:34;;;;;;;7.67;4.97;;;11.70;99.90;;;;;;5034442;28;20907;-66
2023/05/16 06:09:00;;;;;;;9.27;5.50;;;11.90;99.90;;;;;;5034440;28;20335;-66
2023/05/16 06:11:25;;;;;;;9.43;5.63;;;12.20;99.90;;;;;;5032586;28;20221;-64
2023/05/16 06:13:51;;;;;;;14.37;6.00;;;12.50;99.90;;;;;;5033642;28;20176;-65
2023/05/16 06:16:17;;;;;;;5.40;5.00;;;12.80;99.90;;;;;;5035229;28;20226;-65
2023/05/16 06:18:43;;;;;;;6.97;4.60;;;12.90;99.90;;;;;;5033050;28;20207;-65
2023/05/16 06:21:08;;;;;;;7.17;6.00;;;12.90;99.90;;;;;;5034009;28;20206;-65
2023/05/16 06:23:34;;;;;;;9.00;5.23;;;13.00;99.90;;;;;;5033928;28;20290;-65
2023/05/16 06:26:01;;;;;;;7.37;6.23;;;13.20;99.90;;;;;;5033891;28;20768;-65
2023/05/16 06:28:27;;;;;;;6.37;5.00;;;13.30;99.90;;;;;;5034127;28;20191;-65
2023/05/16 06:30:53;;;;;;;9.93;7.00;;;13.40;99.90;;;;;;5033687;28;20659;-65
2023/05/16 06:33:19;;;;;;;11.20;9.67;;;13.20;99.90;;;;;;5033838;28;20179;-65
2023/05/16 06:35:47;;;;;;;10.50;9.30;;;13.30;99.90;;;;;;5033876;28;20563;-65
2023/05/16 06:38:13;;;;;;;16.53;11.93;;;13.50;99.90;;;;;;5033627;28;20199;-65
2023/05/16 06:40:39;;;;;;;7.13;6.50;;;13.80;99.90;;;;;;5033578;28;20179;-65
2023/05/16 06:43:05;;;;;;;12.00;10.70;;;14.00;99.90;;;;;;5033512;28;20257;-65
2023/05/16 06:45:31;;;;;;;8.73;6.13;;;14.00;99.90;;;;;;5033875;28;20171;-65
2023/05/16 06:47:57;;;;;;;10.03;5.60;;;14.00;99.90;;;;;;5033247;28;20601;-65
2023/05/16 06:50:22;;;;;;;9.60;5.90;;;14.10;99.90;;;;;;5033558;28;20168;-65
2023/05/16 06:52:48;;;;;;;8.53;5.40;;;13.90;99.90;;;;;;5033168;28;20182;-65
2023/05/16 06:55:14;;;;;;;6.73;5.20;;;13.80;99.90;;;;;;5033821;28;20262;-65
2023/05/16 06:57:39;;;;;;;7.27;5.20;;;14.10;99.90;;;;;;5033218;28;20206;-65
2023/05/16 07:00:06;;;;;;;7.90;4.87;;;14.30;99.90;;;;;;5033367;28;20167;-64
2023/05/16 07:02:31;;;;;;;5.87;4.70;;;14.40;99.90;;;;;;5033435;28;20176;-65
2023/05/16 07:04:57;;;;;;;7.77;4.93;;;14.70;99.90;;;;;;5033358;28;20214;-65
2023/05/16 07:07:22;;;;;;;6.53;4.90;;;15.10;99.90;;;;;;5033167;28;20215;-66
2023/05/16 07:09:48;;;;;;;7.60;4.60;;;15.30;99.90;;;;;;5033125;28;20230;-65
2023/05/16 07:12:13;;;;;;;5.53;4.77;;;15.50;99.90;;;;;;5032789;28;20171;-65
2023/05/16 07:14:40;;;;;;;7.03;5.80;;;15.70;99.90;;;;;;5033423;28;20229;-65
2023/05/16 07:17:06;;;;;;;6.00;5.33;;;15.40;99.90;;;;;;5032987;28;20195;-65
2023/05/16 07:19:31;;;;;;;6.37;5.53;;;15.40;99.90;;;;;;5031694;28;20180;-64
2023/05/16 07:21:57;;;;;;;7.13;4.53;;;15.50;99.90;;;;;;5032613;28;20683;-64
2023/05/16 07:24:23;;;;;;;7.90;4.60;;;15.50;99.90;;;;;;5033082;28;20195;-65
2023/05/16 07:26:48;;;;;;;5.27;4.53;;;15.60;99.90;;;;;;5032933;28;20265;-65
2023/05/16 07:29:14;;;;;;;7.20;4.43;;;15.40;99.90;;;;;;5032677;28;20172;-64
2023/05/16 07:31:40;;;;;;;9.20;4.80;;;15.10;99.90;;;;;;5032912;28;20184;-64
2023/05/16 07:34:06;;;;;;;4.60;4.00;;;14.80;99.90;;;;;;5032659;28;20609;-65
2023/05/16 07:36:32;;;;;;;6.17;4.60;;;14.80;99.90;;;;;;5032723;28;20172;-65
2023/05/16 07:38:58;;;;;;;6.30;4.30;;;14.80;99.90;;;;;;5032702;28;20186;-64
2023/05/16 07:41:24;;;;;;;14.13;4.67;;;15.00;99.90;;;;;;5031363;28;20180;-64
2023/05/16 07:43:50;;;;;;;4.70;4.30;;;15.10;99.90;;;;;;5032665;28;20207;-65
2023/05/16 07:46:15;;;;;;;6.03;4.13;;;14.80;99.90;;;;;;5032270;28;20232;-65
2023/05/16 07:48:41;;;;;;;8.00;4.40;;;14.60;99.90;;;;;;5032820;28;20171;-64
2023/05/16 07:51:07;;;;;;;7.90;4.33;;;14.70;99.90;;;;;;5030647;28;20207;-64
2023/05/16 07:53:32;;;;;;;7.67;4.33;;;14.80;99.90;;;;;;5032534;28;20170;-64
2023/05/16 07:55:58;;;;;;;6.63;4.60;;;14.90;99.90;;;;;;5030517;28;20278;-64
2023/05/16 07:58:24;;;;;;;5.83;4.80;;;15.10;99.90;;;;;;5030904;28;20662;-64
2023/05/16 08:00:49;;;;;;;6.77;4.63;;;15.30;99.90;;;;;;5030275;28;20201;-64
2023/05/16 08:03:15;;;;;;;7.20;6.67;;;15.40;99.90;;;;;;5032348;28;20657;-65
2023/05/16 08:05:41;;;;;;;6.60;4.20;;;15.20;99.90;;;;;;5031774;28;20167;-64
2023/05/16 08:08:08;;;;;;;4.60;4.30;;;14.90;99.90;;;;;;5043841;22;20660;-66
2023/05/16 08:10:33;;;;;;;6.63;3.93;;;15.10;99.90;;;;;;5011867;28;20172;-67
2023/05/16 08:12:59;;;;;;;4.50;4.17;;;15.50;99.90;;;;;;5011611;28;20661;-66
2023/05/16 08:15:26;;;;;;;9.23;4.10;;;15.90;99.90;;;;;;5012396;28;20199;-66
2023/05/16 08:17:55;;;;;;;5.20;4.80;;;16.20;99.90;;;;;;5012201;28;20188;-65
2023/05/16 08:20:21;;;;;;;5.53;4.03;;;16.10;99.90;;;;;;5011952;28;20190;-66
2023/05/16 08:22:46;;;;;;;5.73;5.33;;;15.80;99.90;;;;;;5012241;28;20251;-65
2023/05/16 08:25:12;;;;;;;7.33;4.20;;;15.40;99.90;;;;;;5012439;28;20172;-65
2023/05/16 08:27:38;;;;;;;5.40;4.30;;;15.50;99.90;;;;;;5012305;28;20688;-66
2023/05/16 08:30:04;;;;;;;6.63;3.77;;;15.90;99.90;;;;;;5011758;28;20572;-66
2023/05/16 08:32:30;;;;;;;7.27;4.10;;;16.10;99.90;;;;;;5012408;28;20168;-66
2023/05/16 08:34:56;;;;;;;4.27;3.60;;;16.40;99.90;;;;;;5012165;28;20233;-66
2023/05/16 08:37:21;;;;;;;4.07;3.70;;;16.30;99.90;;;;;;5012274;28;20215;-66
2023/05/16 08:39:47;;;;;;;5.53;3.93;;;16.30;99.90;;;;;;5011946;28;20669;-66
2023/05/16 08:42:12;;;;;;;5.23;3.60;;;16.00;99.90;;;;;;5011951;28;20172;-66
2023/05/16 08:44:38;;;;;;;6.33;3.37;;;15.70;99.90;;;;;;5010968;28;20215;-65
2023/05/16 08:47:15;;;;;;;3.70;3.40;;;16.10;99.90;;;;;;5029240;28;20227;-66
2023/05/16 08:49:42;;;;;;;3.20;2.90;;;16.70;99.90;;;;;;5025848;28;20176;-66
2023/05/16 08:52:09;;;;;;;3.70;3.07;;;17.30;99.90;;;;;;5011295;28;20585;-66
2023/05/16 08:54:36;;;;;;;4.60;2.90;;;18.00;99.90;;;;;;5011988;28;20176;-66
2023/05/16 08:57:02;;;;;;;3.53;2.90;;;18.20;99.90;;;;;;5010619;28;20219;-66
2023/05/16 08:59:28;;;;;;;4.13;2.97;;;18.70;99.90;;;;;;5010223;28;20246;-66
2023/05/16 09:01:55;;;;;;;4.80;3.55;;;19.00;99.90;;;;;;5011717;28;20176;-66
2023/05/16 09:04:24;;;;;;;3.80;3.25;;;19.00;99.90;;;;;;5011214;28;20618;-65
2023/05/16 09:06:50;;;;;;;3.25;3.00;;;19.30;99.90;;;;;;5011564;28;20183;-66
2023/05/16 09:09:15;;;;;;;3.83;3.47;;;19.30;99.90;;;;;;5011203;28;20207;-65
2023/05/16 09:11:41;;;;;;;4.95;3.20;;;19.10;99.90;;;;;;5011792;28;20579;-66
2023/05/16 09:14:07;;;;;;;5.18;3.85;;;19.30;99.90;;;;;;5011221;28;20191;-66
2023/05/16 09:16:32;;;;;;;4.83;3.20;;;19.10;99.90;;;;;;5014519;28;20191;-66
2023/05/16 09:19:00;;;;;;;5.77;5.27;;;18.30;99.90;;;;;;5015526;28;20211;-66
2023/05/16 09:21:31;;;;;;;4.80;4.47;;;17.40;99.90;;;;;;5015337;28;20198;-66
2023/05/16 09:24:03;;;;;;;3.63;3.33;;;16.60;99.90;;;;;;5015610;28;20619;-66
2023/05/16 09:26:30;;;;;;;4.87;3.77;;;16.20;99.90;;;;;;5015599;28;20633;-66
2023/05/16 09:28:55;;;;;;;6.90;4.47;;;15.90;99.90;;;;;;5013959;28;20681;-66
2023/05/16 09:31:22;;;;;;;6.13;4.17;;;15.60;99.90;;;;;;5015066;28;20215;-66
2023/05/16 09:33:49;;;;;;;6.37;3.97;;;15.70;99.90;;;;;;5015367;28;20267;-66
2023/05/16 09:36:15;;;;;;;3.83;3.43;;;15.90;99.90;;;;;;5015213;28;20180;-66
2023/05/16 09:38:41;;;;;;;3.97;3.37;;;16.60;99.90;;;;;;5015305;28;20195;-66
2023/05/16 09:41:09;;;;;;;6.93;3.43;;;16.90;99.90;;;;;;5014831;28;20180;-66
2023/05/16 09:43:38;;;;;;;4.27;3.87;;;17.10;99.90;;;;;;4995824;28;20201;-66
2023/05/16 09:46:04;;;;;;;3.87;3.57;;;17.00;99.90;;;;;;4995697;28;20165;-66
2023/05/16 09:48:31;;;;;;;3.90;3.53;;;17.60;99.90;;;;;;5014898;28;20204;-66
2023/05/16 09:51:01;;;;;;;3.67;3.30;;;18.40;99.90;;;;;;5014872;28;20176;-66
2023/05/16 09:53:29;;;;;;;3.73;3.43;;;18.70;99.90;;;;;;5015175;28;20178;-66
2023/05/16 09:56:11;;;;;;;4.93;3.17;;;19.10;99.90;;;;;;5014857;28;20219;-66
2023/05/16 09:58:41;;;;;;;4.15;3.70;;;19.60;99.90;;;;;;5015087;28;20188;-66
2023/05/16 10:01:07;;;;;;;3.30;3.10;;;19.90;99.90;;;;;;5013029;28;20190;-66
2023/05/16 10:03:35;;;;;;;3.47;3.17;;;20.20;99.90;;;;;;5015017;28;20200;-66
2023/05/16 10:06:01;;;;;;;3.42;3.22;;;20.50;99.90;;;;;;5014506;28;20187;-66
2023/05/16 10:08:30;;;;;;;5.18;3.45;;;20.80;99.90;;;;;;5014504;28;20302;-66
2023/05/16 10:10:56;;;;;;;4.75;4.05;;;20.50;99.90;;;;;;5014253;28;20179;-66
2023/05/16 10:13:29;;;;;;;6.70;5.13;;;20.20;99.90;;;;;;5014738;28;20177;-66
2023/05/16 10:15:56;;;;;;;3.58;3.28;;;19.90;99.90;;;;;;5012692;28;20188;-66
2023/05/16 10:18:30;;;;;;;4.20;3.10;;;19.70;99.90;;;;;;5014266;28;20195;-66
2023/05/16 10:21:03;;;;;;;5.60;3.40;;;19.00;99.90;;;;;;5013818;28;20179;-66
2023/05/16 10:23:30;;;;;;;5.17;4.30;;;18.20;99.90;;;;;;5014261;28;20192;-65
2023/05/16 10:25:57;;;;;;;3.90;3.30;;;17.70;99.90;;;;;;5014217;28;20176;-66
2023/05/16 10:28:23;;;;;;;5.17;3.70;;;17.80;99.90;;;;;;5013482;28;20573;-66
2023/05/16 10:30:50;;;;;;;5.03;3.40;;;17.40;99.90;;;;;;5013877;28;20729;-65
2023/05/16 10:33:18;;;;;;;4.00;3.60;;;17.20;99.90;;;;;;5014430;28;20176;-66
2023/05/16 10:35:45;;;;;;;5.70;4.00;;;17.00;99.90;;;;;;5014094;28;20180;-66
2023/05/16 10:38:13;;;;;;;3.53;3.23;;;17.30;99.90;;;;;;5013945;28;20842;-66
2023/05/16 10:40:40;;;;;;;3.10;2.90;;;17.90;99.90;;;;;;5013625;28;20182;-66
2023/05/16 10:43:09;;;;;;;4.57;3.75;;;18.80;99.90;;;;;;5014225;28;20692;-66
2023/05/16 10:45:41;;;;;;;5.60;2.88;;;19.80;99.90;;;;;;5013909;28;20556;-66
2023/05/16 10:48:11;;;;;;;5.72;5.18;;;20.40;99.90;;;;;;5013913;28;20184;-65
2023/05/16 10:50:42;;;;;;;4.22;3.67;;;20.40;99.90;;;;;;5013365;28;20179;-66
2023/05/16 10:53:18;;;;;;;3.42;3.22;;;20.30;99.90;;;;;;5013955;28;20183;-66
2023/05/16 10:55:55;;;;;;;6.55;3.97;;;20.20;99.90;;;;;;5014172;28;20183;-66
2023/05/16 10:58:39;;;;;;;3.70;3.33;;;20.20;99.90;;;;;;5013583;28;20205;-66
2023/05/16 11:01:22;;;;;;;4.00;3.60;;;19.60;99.90;;;;;;5013462;28;20172;-66
2023/05/16 11:03:59;;;;;;;5.63;3.30;;;18.90;99.90;;;;;;5013502;28;20203;-66
2023/05/16 11:06:33;;;;;;;6.30;3.57;;;18.30;99.90;;;;;;5013628;28;20168;-66
2023/05/16 11:09:12;;;;;;;4.10;3.70;;;17.60;99.90;;;;;;5013201;28;20206;-66
2023/05/16 11:11:52;;;;;;;3.90;3.67;;;17.00;99.90;;;;;;5013536;28;20176;-66
2023/05/16 11:14:31;;;;;;;5.87;4.13;;;16.60;99.90;;;;;;5013520;28;20669;-66
2023/05/16 11:17:13;;;;;;;4.37;3.80;;;16.50;99.90;;;;;;5013323;28;20274;-66
2023/05/16 11:19:48;;;;;;;6.10;4.30;;;16.30;99.90;;;;;;5012947;28;20226;-66
2023/05/16 11:22:20;;;;;;;4.27;3.87;;;16.50;99.90;;;;;;5013189;28;20172;-66
2023/05/16 11:24:53;;;;;;;6.03;3.97;;;17.20;99.90;;;;;;5013029;28;20295;-66
2023/05/16 11:27:24;;;;;;;4.17;3.77;;;17.70;99.90;;;;;;5012936;28;20200;-66
2023/05/16 11:29:50;;;;;;;5.03;4.10;;;17.60;99.90;;;;;;5011610;28;20169;-66
2023/05/16 11:32:20;;;;;;;8.73;4.07;;;17.30;99.90;;;;;;5012637;28;20176;-66
2023/05/16 11:34:47;;;;;;;4.53;4.00;;;17.00;99.90;;;;;;5013231;28;20256;-66
2023/05/16 11:37:14;;;;;;;6.50;4.10;;;16.70;99.90;;;;;;5012812;28;20223;-66
2023/05/16 11:39:39;;;;;;;5.87;4.13;;;16.50;99.90;;;;;;5011877;28;20646;-66
2023/05/16 11:42:05;;;;;;;5.23;4.20;;;16.20;99.90;;;;;;5012774;28;20186;-66
2023/05/16 11:44:30;;;;;;;5.57;3.73;;;16.20;99.90;;;;;;5012819;28;20211;-66
2023/05/16 11:46:56;;;;;;;11.13;3.90;;;16.50;99.90;;;;;;5012625;28;20196;-66
2023/05/16 11:49:22;;;;;;;3.67;3.37;;;16.70;99.90;;;;;;5012890;28;20626;-66
2023/05/16 11:51:48;;;;;;;5.87;4.50;;;16.80;99.90;;;;;;5012760;28;20265;-66
2023/05/16 11:54:14;;;;;;;4.70;3.87;;;17.00;99.90;;;;;;5011428;28;20701;-66
2023/05/16 11:56:40;;;;;;;3.87;3.50;;;17.60;99.90;;;;;;5012766;28;20608;-67
2023/05/16 11:59:07;;;;;;;3.53;3.23;;;18.40;99.90;;;;;;5012036;28;20176;-66
2023/05/16 12:01:34;;;;;;;3.70;3.40;;;19.00;99.90;;;;;;5012472;28;20203;-67
2023/05/16 12:04:00;;;;;;;7.90;4.13;;;19.70;99.90;;;;;;5012321;28;20208;-67
2023/05/16 12:06:28;;;;;;;4.22;4.03;;;20.30;99.90;;;;;;5012357;28;20241;-67
2023/05/16 12:08:54;;;;;;;5.93;3.55;;;20.80;99.90;;;;;;5012421;28;20204;-67
2023/05/16 12:11:21;;;;;;;9.30;3.35;;;21.10;99.90;;;;;;5011883;28;20239;-67
2023/05/16 12:13:47;;;;;;;4.85;4.45;;;21.00;99.90;;;;;;5012481;28;20180;-66
2023/05/16 12:16:13;;;;;;;4.45;3.85;;;20.60;99.90;;;;;;5012481;28;20183;-67
2023/05/16 12:18:40;;;;;;;3.65;3.35;;;20.10;99.90;;;;;;5012462;28;20545;-67
2023/05/16 12:21:05;;;;;;;3.80;3.40;;;19.70;99.90;;;;;;5013054;28;20195;-67
2023/05/16 12:23:34;;;;;;;3.90;3.50;;;19.00;99.90;;;;;;5012902;28;20216;-67
2023/05/16 12:26:06;;;;;;;4.20;3.80;;;18.00;99.90;;;;;;5012373;28;20259;-67
2023/05/16 12:28:34;;;;;;;4.33;3.57;;;17.10;99.90;;;;;;5012481;28;20203;-67
2023/05/16 12:30:59;;;;;;;5.93;4.27;;;16.80;99.90;;;;;;5012885;28;20223;-67
2023/05/16 12:33:26;;;;;;;5.83;5.27;;;16.80;99.90;;;;;;5012141;28;20187;-67
2023/05/16 12:35:53;;;;;;;3.87;3.67;;;17.10;99.90;;;;;;5012032;28;20176;-66
2023/05/16 12:38:19;;;;;;;3.53;3.10;;;17.50;99.90;;;;;;5011805;28;20196;-67
2023/05/16 12:40:46;;;;;;;3.20;3.00;;;18.10;99.90;;;;;;5011730;28;20187;-66
2023/05/16 12:43:21;;;;;;;4.20;3.90;;;18.30;99.90;;;;;;5012234;28;20215;-67
2023/05/16 12:45:53;;;;;;;3.70;3.50;;;18.20;99.90;;;;;;5011827;28;20187;-66
2023/05/16 12:48:19;;;;;;;4.23;3.90;;;18.00;99.90;;;;;;5012162;28;20236;-66